createdAt,value
2018-03-16T00:00:14.542Z,20.10
2018-03-16T00:01:14.583Z,20.80
2018-03-16T00:02:14.565Z,20.90
2018-03-16T00:03:14.735Z,20.70
2018-03-16T00:04:14.523Z,21.60
2018-03-16T00:05:14.527Z,21.40
2018-03-16T00:06:14.582Z,21.00
2018-03-16T00:07:14.510Z,21.20
2018-03-16T00:08:14.514Z,21.90
2018-03-16T00:09:14.503Z,21.50
2018-03-16T00:10:14.503Z,21.50
2018-03-16T00:11:14.539Z,22.30
2018-03-16T00:12:14.487Z,22.30
2018-03-16T00:13:14.484Z,21.40
2018-03-16T00:14:14.476Z,22.90
2018-03-16T00:15:14.475Z,21.50
2018-03-16T00:16:14.525Z,21.40
2018-03-16T00:17:14.507Z,22.10
2018-03-16T00:18:14.476Z,21.80
2018-03-16T00:19:14.474Z,22.00
2018-03-16T00:20:14.447Z,21.70
2018-03-16T00:21:14.490Z,22.10
2018-03-16T00:22:14.455Z,21.80
2018-03-16T00:23:14.436Z,21.20
2018-03-16T00:24:14.435Z,21.80
2018-03-16T00:25:14.425Z,22.80
2018-03-16T00:26:14.480Z,22.40
2018-03-16T00:27:14.454Z,22.00
2018-03-16T00:28:14.422Z,22.20
2018-03-16T00:29:14.420Z,22.80
2018-03-16T00:30:14.404Z,22.30
2018-03-16T00:31:14.434Z,22.00
2018-03-16T00:32:14.402Z,22.80
2018-03-16T00:33:14.386Z,23.80
2018-03-16T00:34:14.383Z,24.20
2018-03-16T00:35:14.388Z,23.10
2018-03-16T00:36:14.422Z,23.50
2018-03-16T00:37:14.369Z,23.20
2018-03-16T00:38:14.411Z,23.30
2018-03-16T00:39:14.371Z,23.90
2018-03-16T00:40:14.370Z,24.40
2018-03-16T00:41:14.400Z,24.50
2018-03-16T00:42:14.345Z,25.70
2018-03-16T00:43:14.350Z,25.20
2018-03-16T00:44:14.337Z,25.10
2018-03-16T00:45:14.368Z,24.90
2018-03-16T00:46:14.359Z,24.70
2018-03-16T00:47:14.331Z,25.00
2018-03-16T00:48:14.317Z,25.30
2018-03-16T00:49:14.319Z,25.40
2018-03-16T00:50:14.354Z,25.10
2018-03-16T00:51:14.310Z,25.10
2018-03-16T00:52:14.308Z,25.90
2018-03-16T00:53:14.311Z,24.70
2018-03-16T00:54:14.296Z,25.00
2018-03-16T00:55:14.337Z,24.00
2018-03-16T00:56:14.290Z,25.60
2018-03-16T00:57:14.273Z,25.80
2018-03-16T00:58:14.285Z,24.00
2018-03-16T00:59:14.265Z,23.50
2018-03-16T01:00:14.320Z,25.50
2018-03-16T01:01:14.264Z,26.50
2018-03-16T01:02:14.262Z,26.00
2018-03-16T01:03:14.286Z,26.10
2018-03-16T01:04:14.250Z,26.70
2018-03-16T01:05:14.278Z,26.40
2018-03-16T01:06:14.259Z,26.10
2018-03-16T01:07:14.239Z,25.60
2018-03-16T01:08:14.223Z,26.80
2018-03-16T01:09:14.218Z,25.40
2018-03-16T01:10:14.269Z,27.50
2018-03-16T01:11:14.210Z,25.40
2018-03-16T01:12:14.213Z,25.70
2018-03-16T01:13:14.211Z,26.20
2018-03-16T01:14:14.196Z,25.90
2018-03-16T01:15:14.645Z,26.30
2018-03-16T01:16:14.194Z,25.90
2018-03-16T01:17:14.184Z,26.50
2018-03-16T01:18:14.179Z,25.70
2018-03-16T01:19:14.182Z,26.20
2018-03-16T01:20:14.219Z,25.40
2018-03-16T01:21:14.174Z,26.40
2018-03-16T01:22:14.176Z,26.30
2018-03-16T01:23:14.170Z,26.70
2018-03-16T01:24:14.166Z,25.90
2018-03-16T01:25:14.185Z,25.70
2018-03-16T01:26:14.141Z,26.80
2018-03-16T01:27:14.144Z,25.60
2018-03-16T01:28:14.147Z,27.10
2018-03-16T01:29:14.131Z,25.20
2018-03-16T01:30:14.188Z,26.30
2018-03-16T01:31:14.138Z,24.90
2018-03-16T01:32:14.118Z,26.00
2018-03-16T01:33:14.138Z,25.20
2018-03-16T01:34:14.117Z,27.60
2018-03-16T01:35:14.149Z,26.80
2018-03-16T01:36:14.101Z,26.70
2018-03-16T01:37:14.103Z,25.20
2018-03-16T01:38:14.098Z,26.50
2018-03-16T01:39:14.092Z,27.50
2018-03-16T01:40:14.122Z,26.10
2018-03-16T01:41:14.087Z,26.40
2018-03-16T01:42:14.082Z,27.10
2018-03-16T01:43:14.068Z,27.90
2018-03-16T01:44:14.104Z,26.90
2018-03-16T01:45:14.071Z,26.40
2018-03-16T01:46:14.066Z,27.50
2018-03-16T01:47:14.074Z,26.50
2018-03-16T01:48:14.053Z,27.00
2018-03-16T01:49:14.052Z,26.00
2018-03-16T01:50:14.091Z,27.10
2018-03-16T01:51:14.043Z,27.60
2018-03-16T01:52:14.041Z,27.30
2018-03-16T01:53:14.037Z,25.50
2018-03-16T01:54:14.027Z,27.50
2018-03-16T01:55:14.071Z,26.90
2018-03-16T01:56:14.016Z,26.30
2018-03-16T01:57:14.033Z,28.20
2018-03-16T01:58:14.017Z,26.70
2018-03-16T01:59:14.016Z,25.10
2018-03-16T02:00:14.063Z,27.60
2018-03-16T02:01:13.992Z,27.00
2018-03-16T02:02:13.996Z,27.00
2018-03-16T02:03:13.983Z,24.90
2018-03-16T02:04:13.989Z,26.80
2018-03-16T02:05:14.020Z,27.90
2018-03-16T02:06:13.971Z,28.00
2018-03-16T02:07:14.000Z,27.10
2018-03-16T02:08:13.972Z,27.30
2018-03-16T02:09:13.968Z,26.90
2018-03-16T02:10:13.990Z,28.70
2018-03-16T02:11:13.951Z,27.30
2018-03-16T02:12:13.948Z,28.60
2018-03-16T02:13:13.939Z,27.30
2018-03-16T02:14:13.964Z,28.30
2018-03-16T02:15:13.978Z,26.10
2018-03-16T02:16:13.928Z,31.00
2018-03-16T02:17:13.926Z,28.20
2018-03-16T02:18:13.918Z,28.50
2018-03-16T02:19:13.916Z,29.60
2018-03-16T02:20:13.949Z,29.70
2018-03-16T02:21:13.913Z,29.80
2018-03-16T02:22:13.899Z,30.50
2018-03-16T02:23:13.907Z,28.60
2018-03-16T02:24:13.903Z,29.10
2018-03-16T02:25:13.925Z,28.60
2018-03-16T02:26:13.894Z,28.90
2018-03-16T02:27:13.894Z,30.80
2018-03-16T02:28:13.888Z,29.80
2018-03-16T02:29:13.868Z,30.70
2018-03-16T02:30:13.907Z,28.00
2018-03-16T02:31:13.871Z,30.90
2018-03-16T02:32:13.860Z,31.80
2018-03-16T02:33:13.864Z,33.10
2018-03-16T02:34:13.868Z,31.40
2018-03-16T02:35:13.891Z,31.50
2018-03-16T02:36:13.848Z,31.90
2018-03-16T02:37:13.842Z,30.00
2018-03-16T02:38:13.842Z,31.30
2018-03-16T02:39:13.835Z,33.10
2018-03-16T02:40:13.871Z,34.90
2018-03-16T02:41:13.866Z,32.90
2018-03-16T02:42:13.813Z,33.90
2018-03-16T02:43:13.908Z,33.80
2018-03-16T02:44:13.814Z,31.60
2018-03-16T02:45:13.836Z,30.10
2018-03-16T02:46:13.798Z,32.30
2018-03-16T02:47:13.788Z,33.20
2018-03-16T02:48:13.797Z,32.40
2018-03-16T02:49:14.439Z,30.60
2018-03-16T02:50:13.813Z,33.50
2018-03-16T02:51:13.785Z,31.40
2018-03-16T02:52:13.812Z,30.30
2018-03-16T02:53:13.771Z,31.30
2018-03-16T02:54:13.784Z,33.50
2018-03-16T02:55:13.801Z,32.10
2018-03-16T02:56:13.795Z,33.60
2018-03-16T02:57:13.754Z,32.40
2018-03-16T02:58:13.747Z,32.40
2018-03-16T02:59:13.759Z,34.70
2018-03-16T03:00:13.782Z,35.60
2018-03-16T03:01:13.797Z,36.00
2018-03-16T03:02:13.773Z,35.60
2018-03-16T03:03:13.722Z,35.30
2018-03-16T03:04:13.753Z,34.80
2018-03-16T03:05:13.765Z,36.90
2018-03-16T03:06:13.705Z,37.20
2018-03-16T03:07:13.736Z,36.80
2018-03-16T03:08:13.730Z,35.50
2018-03-16T03:09:13.743Z,34.50
2018-03-16T03:10:13.742Z,34.70
2018-03-16T03:11:13.750Z,34.50
2018-03-16T03:12:13.749Z,36.20
2018-03-16T03:13:13.736Z,34.30
2018-03-16T03:14:13.663Z,31.40
2018-03-16T03:15:13.702Z,34.70
2018-03-16T03:16:13.742Z,36.60
2018-03-16T03:17:13.663Z,37.20
2018-03-16T03:18:13.669Z,36.50
2018-03-16T03:19:13.683Z,34.10
2018-03-16T03:20:13.649Z,34.60
2018-03-16T03:21:13.653Z,34.60
2018-03-16T03:22:13.634Z,37.50
2018-03-16T03:23:13.668Z,36.10
2018-03-16T03:24:13.657Z,35.60
2018-03-16T03:25:13.613Z,37.00
2018-03-16T03:26:13.647Z,34.70
2018-03-16T03:27:13.612Z,34.10
2018-03-16T03:28:13.634Z,34.40
2018-03-16T03:29:13.655Z,35.70
2018-03-16T03:30:13.591Z,36.90
2018-03-16T03:31:13.596Z,33.90
2018-03-16T03:32:13.579Z,33.40
2018-03-16T03:33:13.583Z,33.60
2018-03-16T03:34:13.596Z,33.20
2018-03-16T03:35:13.616Z,34.80
2018-03-16T03:36:13.564Z,33.90
2018-03-16T03:37:13.553Z,34.40
2018-03-16T03:38:13.563Z,32.20
2018-03-16T03:39:13.592Z,34.60
2018-03-16T03:40:13.552Z,35.80
2018-03-16T03:41:13.536Z,37.80
2018-03-16T03:42:13.544Z,37.30
2018-03-16T03:43:13.540Z,37.80
2018-03-16T03:44:13.571Z,37.50
2018-03-16T03:45:13.522Z,37.40
2018-03-16T03:46:13.524Z,35.70
2018-03-16T03:47:13.511Z,36.80
2018-03-16T03:48:13.537Z,36.00
2018-03-16T03:49:13.549Z,35.90
2018-03-16T03:50:13.506Z,32.80
2018-03-16T03:51:13.492Z,36.60
2018-03-16T03:52:13.498Z,30.70
2018-03-16T03:53:13.480Z,33.40
2018-03-16T03:54:13.522Z,33.30
2018-03-16T03:55:13.491Z,32.50
2018-03-16T03:56:13.486Z,32.30
2018-03-16T03:57:13.466Z,32.00
2018-03-16T03:58:13.467Z,34.40
2018-03-16T03:59:13.505Z,33.00
2018-03-16T04:00:13.459Z,34.80
2018-03-16T04:01:13.444Z,37.80
2018-03-16T04:02:13.442Z,36.60
2018-03-16T04:03:16.106Z,35.10
2018-03-16T04:04:13.468Z,37.40
2018-03-16T04:05:13.452Z,39.00
2018-03-16T04:06:13.426Z,38.50
2018-03-16T04:07:13.420Z,35.60
2018-03-16T04:08:14.067Z,34.00
2018-03-16T04:09:13.447Z,33.70
2018-03-16T04:10:13.403Z,32.30
2018-03-16T04:11:13.400Z,34.10
2018-03-16T04:12:13.427Z,35.40
2018-03-16T04:13:13.404Z,33.70
2018-03-16T04:14:13.435Z,35.70
2018-03-16T04:15:13.948Z,33.90
2018-03-16T04:16:13.387Z,34.50
2018-03-16T04:17:13.432Z,36.30
2018-03-16T04:18:13.378Z,37.20
2018-03-16T04:19:13.373Z,28.40
2018-03-16T04:20:13.370Z,32.40
2018-03-16T04:21:13.362Z,36.60
2018-03-16T04:22:13.410Z,37.90
2018-03-16T04:23:13.355Z,40.80
2018-03-16T04:24:13.355Z,38.20
2018-03-16T04:25:13.409Z,39.50
2018-03-16T04:26:13.342Z,37.20
2018-03-16T04:27:13.338Z,37.70
2018-03-16T04:28:13.330Z,39.40
2018-03-16T04:29:13.349Z,36.70
2018-03-16T04:30:13.362Z,38.20
2018-03-16T04:31:13.319Z,38.10
2018-03-16T04:32:13.366Z,35.80
2018-03-16T04:33:13.310Z,38.50
2018-03-16T04:34:13.302Z,40.00
2018-03-16T04:35:13.300Z,40.40
2018-03-16T04:36:13.292Z,41.00
2018-03-16T04:37:13.332Z,39.90
2018-03-16T04:38:13.300Z,38.30
2018-03-16T04:39:13.302Z,37.20
2018-03-16T04:40:13.276Z,37.80
2018-03-16T04:41:13.273Z,41.10
2018-03-16T04:42:13.311Z,40.90
2018-03-16T04:43:13.265Z,40.80
2018-03-16T04:44:13.260Z,41.10
2018-03-16T04:45:13.253Z,40.90
2018-03-16T04:46:13.250Z,39.60
2018-03-16T04:47:13.288Z,40.10
2018-03-16T04:48:13.239Z,40.20
2018-03-16T04:49:13.239Z,40.00
2018-03-16T04:50:13.232Z,39.90
2018-03-16T04:51:13.223Z,39.40
2018-03-16T04:52:13.272Z,38.40
2018-03-16T04:53:13.224Z,37.50
2018-03-16T04:54:13.212Z,40.20
2018-03-16T04:55:14.175Z,39.40
2018-03-16T04:56:13.207Z,42.80
2018-03-16T04:57:13.928Z,39.00
2018-03-16T04:58:13.193Z,38.40
2018-03-16T04:59:13.252Z,35.80
2018-03-16T05:00:13.185Z,36.50
2018-03-16T05:01:14.164Z,36.30
2018-03-16T05:02:13.216Z,37.60
2018-03-16T05:03:13.170Z,36.70
2018-03-16T05:04:13.164Z,37.20
2018-03-16T05:05:13.165Z,40.00
2018-03-16T05:06:13.160Z,39.60
2018-03-16T05:07:13.192Z,37.10
2018-03-16T05:08:13.145Z,36.90
2018-03-16T05:09:13.143Z,41.10
2018-03-16T05:10:13.136Z,37.20
2018-03-16T05:11:13.186Z,35.60
2018-03-16T05:12:13.152Z,34.00
2018-03-16T05:13:13.122Z,41.40
2018-03-16T05:14:13.166Z,40.30
2018-03-16T05:15:13.113Z,40.20
2018-03-16T05:16:13.114Z,43.90
2018-03-16T05:17:13.106Z,39.40
2018-03-16T05:18:13.112Z,40.70
2018-03-16T05:19:13.136Z,43.50
2018-03-16T05:20:13.089Z,43.30
2018-03-16T05:21:13.085Z,44.60
2018-03-16T05:22:13.123Z,41.00
2018-03-16T05:23:13.074Z,41.80
2018-03-16T05:24:13.074Z,41.50
2018-03-16T05:25:13.066Z,38.80
2018-03-16T05:26:13.067Z,45.10
2018-03-16T05:27:13.099Z,44.10
2018-03-16T05:28:13.055Z,45.70
2018-03-16T05:29:13.046Z,44.10
2018-03-16T05:30:13.047Z,41.80
2018-03-16T05:31:13.040Z,43.70
2018-03-16T05:32:13.072Z,44.70
2018-03-16T05:33:13.032Z,37.60
2018-03-16T05:34:13.024Z,43.50
2018-03-16T05:35:13.020Z,45.10
2018-03-16T05:36:13.016Z,44.00
2018-03-16T05:37:13.050Z,39.70
2018-03-16T05:38:13.009Z,40.90
2018-03-16T05:39:13.006Z,35.40
2018-03-16T05:40:12.997Z,40.90
2018-03-16T05:41:12.996Z,45.00
2018-03-16T05:42:13.040Z,43.80
2018-03-16T05:43:12.987Z,43.90
2018-03-16T05:44:12.978Z,41.20
2018-03-16T05:45:13.012Z,44.50
2018-03-16T05:46:12.979Z,41.00
2018-03-16T05:47:12.967Z,37.80
2018-03-16T05:48:13.011Z,38.40
2018-03-16T05:49:12.957Z,41.20
2018-03-16T05:50:13.011Z,39.00
2018-03-16T05:51:12.957Z,43.70
2018-03-16T05:52:12.995Z,44.10
2018-03-16T05:53:12.957Z,37.70
2018-03-16T05:54:12.935Z,40.70
2018-03-16T05:55:12.940Z,44.70
2018-03-16T05:56:12.969Z,47.70
2018-03-16T05:57:12.922Z,41.80
2018-03-16T05:58:12.968Z,42.20
2018-03-16T05:59:12.911Z,42.10
2018-03-16T06:00:12.932Z,44.10
2018-03-16T06:01:12.943Z,42.70
2018-03-16T06:02:12.896Z,44.80
2018-03-16T06:03:12.942Z,42.20
2018-03-16T06:04:12.888Z,44.10
2018-03-16T06:05:12.881Z,40.30
2018-03-16T06:06:12.879Z,41.00
2018-03-16T06:07:12.930Z,39.10
2018-03-16T06:08:12.867Z,42.90
2018-03-16T06:09:12.865Z,40.30
2018-03-16T06:10:12.861Z,42.90
2018-03-16T06:11:12.855Z,34.10
2018-03-16T06:12:12.900Z,38.30
2018-03-16T06:13:12.847Z,44.20
2018-03-16T06:14:12.840Z,39.40
2018-03-16T06:15:12.891Z,42.90
2018-03-16T06:16:12.842Z,41.50
2018-03-16T06:17:12.828Z,43.70
2018-03-16T06:18:12.860Z,39.90
2018-03-16T06:19:12.837Z,41.60
2018-03-16T06:20:12.843Z,44.90
2018-03-16T06:21:12.809Z,39.90
2018-03-16T06:22:12.858Z,43.10
2018-03-16T06:23:12.800Z,42.20
2018-03-16T06:24:12.800Z,42.10
2018-03-16T06:25:12.830Z,40.30
2018-03-16T06:26:12.788Z,38.90
2018-03-16T06:27:12.791Z,41.50
2018-03-16T06:28:12.819Z,40.10
2018-03-16T06:29:12.773Z,39.40
2018-03-16T06:30:12.772Z,42.90
2018-03-16T06:31:12.766Z,40.20
2018-03-16T06:32:12.764Z,41.40
2018-03-16T06:33:12.793Z,42.50
2018-03-16T06:34:12.753Z,39.30
2018-03-16T06:35:12.750Z,42.40
2018-03-16T06:36:12.745Z,40.80
2018-03-16T06:37:12.739Z,42.00
2018-03-16T06:38:12.776Z,42.20
2018-03-16T06:39:12.728Z,40.10
2018-03-16T06:40:12.734Z,39.60
2018-03-16T06:41:12.719Z,39.90
2018-03-16T06:42:13.460Z,39.30
2018-03-16T06:43:12.771Z,42.90
2018-03-16T06:44:12.707Z,40.60
2018-03-16T06:45:12.708Z,40.30
2018-03-16T06:46:12.699Z,39.70
2018-03-16T06:47:12.716Z,36.90
2018-03-16T06:48:12.739Z,37.30
2018-03-16T06:49:12.734Z,39.10
2018-03-16T06:50:12.681Z,40.20
2018-03-16T06:51:12.677Z,39.20
2018-03-16T06:52:12.672Z,37.40
2018-03-16T06:53:12.665Z,40.30
2018-03-16T06:54:12.718Z,37.10
2018-03-16T06:55:12.662Z,38.30
2018-03-16T06:56:12.657Z,38.00
2018-03-16T06:57:12.648Z,39.20
2018-03-16T06:58:12.644Z,38.00
2018-03-16T06:59:12.691Z,35.00
2018-03-16T07:00:13.463Z,34.80
2018-03-16T07:01:12.635Z,39.70
2018-03-16T07:02:12.626Z,37.90
2018-03-16T07:03:12.625Z,38.10
2018-03-16T07:04:12.675Z,36.90
2018-03-16T07:05:12.617Z,39.70
2018-03-16T07:06:12.614Z,37.20
2018-03-16T07:07:12.620Z,36.60
2018-03-16T07:08:12.649Z,39.40
2018-03-16T07:09:12.599Z,37.50
2018-03-16T07:10:12.593Z,36.80
2018-03-16T07:11:12.595Z,38.80
2018-03-16T07:12:12.584Z,34.60
2018-03-16T07:13:12.620Z,35.90
2018-03-16T07:14:19.950Z,36.00
2018-03-16T07:15:12.571Z,33.60
2018-03-16T07:16:12.572Z,36.10
2018-03-16T07:17:12.565Z,34.90
2018-03-16T07:18:12.599Z,37.20
2018-03-16T07:19:12.554Z,35.70
2018-03-16T07:20:12.552Z,32.90
2018-03-16T07:21:12.572Z,37.10
2018-03-16T07:22:12.542Z,35.70
2018-03-16T07:23:12.636Z,36.60
2018-03-16T07:24:12.534Z,35.10
2018-03-16T07:25:13.019Z,32.30
2018-03-16T07:26:12.531Z,35.80
2018-03-16T07:27:12.520Z,38.60
2018-03-16T07:28:12.559Z,35.30
2018-03-16T07:29:12.536Z,35.40
2018-03-16T07:30:12.533Z,37.20
2018-03-16T07:31:12.523Z,37.30
2018-03-16T07:32:12.522Z,35.70
2018-03-16T07:33:12.548Z,37.20
2018-03-16T07:34:12.496Z,31.70
2018-03-16T07:35:12.514Z,32.00
2018-03-16T07:36:12.487Z,34.70
2018-03-16T07:37:12.539Z,31.80
2018-03-16T07:38:12.521Z,37.20
2018-03-16T07:39:12.495Z,28.60
2018-03-16T07:40:12.471Z,37.10
2018-03-16T07:41:12.484Z,36.20
2018-03-16T07:42:12.462Z,35.10
2018-03-16T07:43:12.502Z,35.10
2018-03-16T07:44:12.460Z,35.00
2018-03-16T07:45:12.454Z,32.80
2018-03-16T07:46:12.461Z,30.70
2018-03-16T07:47:12.445Z,34.30
2018-03-16T07:48:12.480Z,32.90
2018-03-16T07:49:12.440Z,31.30
2018-03-16T07:50:12.435Z,34.40
2018-03-16T07:51:12.428Z,33.60
2018-03-16T07:52:12.425Z,36.70
2018-03-16T07:53:12.458Z,34.00
2018-03-16T07:54:12.418Z,34.60
2018-03-16T07:55:12.414Z,31.70
2018-03-16T07:56:12.408Z,34.20
2018-03-16T07:57:12.454Z,36.50
2018-03-16T07:58:12.401Z,35.90
2018-03-16T07:59:12.436Z,36.20
2018-03-16T08:00:12.546Z,36.80
2018-03-16T08:01:12.392Z,35.50
2018-03-16T08:02:12.428Z,37.10
2018-03-16T08:03:12.404Z,36.90
2018-03-16T08:04:12.379Z,36.30
2018-03-16T08:05:12.375Z,36.10
2018-03-16T08:06:12.382Z,33.60
2018-03-16T08:07:12.403Z,37.70
2018-03-16T08:08:12.366Z,37.90
2018-03-16T08:09:12.362Z,35.90
2018-03-16T08:10:12.356Z,37.40
2018-03-16T08:11:12.354Z,34.00
2018-03-16T08:12:12.388Z,33.60
2018-03-16T08:13:12.362Z,36.80
2018-03-16T08:14:12.346Z,36.10
2018-03-16T08:15:12.384Z,39.90
2018-03-16T08:16:12.366Z,38.40
2018-03-16T08:17:12.370Z,39.20
2018-03-16T08:18:12.331Z,36.90
2018-03-16T08:19:12.327Z,36.70
2018-03-16T08:20:12.321Z,38.10
2018-03-16T08:21:12.315Z,38.60
2018-03-16T08:22:12.360Z,36.70
2018-03-16T08:23:12.332Z,37.80
2018-03-16T08:24:12.347Z,37.50
2018-03-16T08:25:12.302Z,36.90
2018-03-16T08:26:12.299Z,36.80
2018-03-16T08:27:12.297Z,31.90
2018-03-16T08:28:12.341Z,36.70
2018-03-16T08:29:12.288Z,37.70
2018-03-16T08:30:12.311Z,37.90
2018-03-16T08:31:12.283Z,37.10
2018-03-16T08:32:12.278Z,38.40
2018-03-16T08:33:12.323Z,38.40
2018-03-16T08:34:12.270Z,38.50
2018-03-16T08:35:12.269Z,34.00
2018-03-16T08:36:12.265Z,30.60
2018-03-16T08:37:12.265Z,37.80
2018-03-16T08:38:12.294Z,33.50
2018-03-16T08:39:12.259Z,38.20
2018-03-16T08:40:12.261Z,37.10
2018-03-16T08:41:12.245Z,38.80
2018-03-16T08:42:12.245Z,38.90
2018-03-16T08:43:12.282Z,38.00
2018-03-16T08:44:12.238Z,38.30
2018-03-16T08:45:12.234Z,38.20
2018-03-16T08:46:12.261Z,38.30
2018-03-16T08:47:12.228Z,36.70
2018-03-16T08:48:12.262Z,36.60
2018-03-16T08:49:12.223Z,38.10
2018-03-16T08:50:12.223Z,37.90
2018-03-16T08:51:12.236Z,36.80
2018-03-16T08:52:12.211Z,37.60
2018-03-16T08:53:12.264Z,35.70
2018-03-16T08:54:12.205Z,34.80
2018-03-16T08:55:12.200Z,35.60
2018-03-16T08:56:12.198Z,35.80
2018-03-16T08:57:12.193Z,35.00
2018-03-16T08:58:12.232Z,33.80
2018-03-16T08:59:12.229Z,30.40
2018-03-16T09:00:12.189Z,35.90
2018-03-16T09:01:12.206Z,34.00
2018-03-16T09:02:12.181Z,36.80
2018-03-16T09:03:12.758Z,35.60
2018-03-16T09:04:12.231Z,37.60
2018-03-16T09:05:12.171Z,34.90
2018-03-16T09:06:12.171Z,38.00
2018-03-16T09:07:12.168Z,35.10
2018-03-16T09:08:12.163Z,37.90
2018-03-16T09:09:12.198Z,35.50
2018-03-16T09:10:12.156Z,35.10
2018-03-16T09:11:12.158Z,34.70
2018-03-16T09:12:12.151Z,36.80
2018-03-16T09:13:12.187Z,34.50
2018-03-16T09:14:12.164Z,35.30
2018-03-16T09:15:12.144Z,35.60
2018-03-16T09:16:12.141Z,33.90
2018-03-16T09:17:12.141Z,36.50
2018-03-16T09:18:12.195Z,34.00
2018-03-16T09:19:12.183Z,32.10
2018-03-16T09:20:12.132Z,34.40
2018-03-16T09:21:12.154Z,32.90
2018-03-16T09:22:12.126Z,33.60
2018-03-16T09:23:12.121Z,32.10
2018-03-16T09:24:12.163Z,31.90
2018-03-16T09:25:12.159Z,32.70
2018-03-16T09:26:12.116Z,34.60
2018-03-16T09:27:12.666Z,33.70
2018-03-16T09:28:12.110Z,34.30
2018-03-16T09:29:12.106Z,30.40
2018-03-16T09:30:12.146Z,35.60
2018-03-16T09:31:12.123Z,36.50
2018-03-16T09:32:12.101Z,36.90
2018-03-16T09:33:12.096Z,36.30
2018-03-16T09:34:12.097Z,36.30
2018-03-16T09:35:12.129Z,35.30
2018-03-16T09:36:12.088Z,34.60
2018-03-16T09:37:12.102Z,33.80
2018-03-16T09:38:12.101Z,30.90
2018-03-16T09:39:12.082Z,32.90
2018-03-16T09:40:12.119Z,33.20
2018-03-16T09:41:12.096Z,32.50
2018-03-16T09:42:12.079Z,33.60
2018-03-16T09:43:12.075Z,33.20
2018-03-16T09:44:12.069Z,31.80
2018-03-16T09:45:12.122Z,32.70
2018-03-16T09:46:12.067Z,30.10
2018-03-16T09:47:12.062Z,30.70
2018-03-16T09:48:12.076Z,29.60
2018-03-16T09:49:12.055Z,33.40
2018-03-16T09:50:12.106Z,29.00
2018-03-16T09:51:12.052Z,31.00
2018-03-16T09:52:12.050Z,33.00
2018-03-16T09:53:12.044Z,33.80
2018-03-16T09:54:12.180Z,31.50
2018-03-16T09:55:12.051Z,33.70
2018-03-16T09:56:12.039Z,29.70
2018-03-16T09:57:12.036Z,31.60
2018-03-16T09:58:12.045Z,28.80
2018-03-16T09:59:12.081Z,30.50
2018-03-16T10:00:12.032Z,32.00
2018-03-16T10:01:12.024Z,32.10
2018-03-16T10:02:12.059Z,31.70
2018-03-16T10:03:12.019Z,32.40
2018-03-16T10:04:12.060Z,32.20
2018-03-16T10:05:12.023Z,29.30
2018-03-16T10:06:12.064Z,28.80
2018-03-16T10:07:12.012Z,31.60
2018-03-16T10:08:12.005Z,28.10
2018-03-16T10:09:12.045Z,30.00
2018-03-16T10:10:12.001Z,31.30
2018-03-16T10:11:11.997Z,27.90
2018-03-16T10:12:12.055Z,30.00
2018-03-16T10:13:11.992Z,28.80
2018-03-16T10:14:14.118Z,30.10
2018-03-16T10:15:12.040Z,26.30
2018-03-16T10:16:11.984Z,28.60
2018-03-16T10:17:12.019Z,28.90
2018-03-16T10:18:11.979Z,28.80
2018-03-16T10:19:11.996Z,30.00
2018-03-16T10:20:11.971Z,28.50
2018-03-16T10:21:11.969Z,27.90
2018-03-16T10:22:12.025Z,27.60
2018-03-16T10:23:11.965Z,30.40
2018-03-16T10:24:12.000Z,26.40
2018-03-16T10:25:11.956Z,28.90
2018-03-16T10:26:11.954Z,30.20
2018-03-16T10:27:12.002Z,29.20
2018-03-16T10:28:11.952Z,30.60
2018-03-16T10:29:12.000Z,29.20
2018-03-16T10:30:11.947Z,27.10
2018-03-16T10:31:11.943Z,28.20
2018-03-16T10:32:11.938Z,28.20
2018-03-16T10:33:11.936Z,26.50
2018-03-16T10:34:11.980Z,28.90
2018-03-16T10:35:11.933Z,28.50
2018-03-16T10:36:11.927Z,28.90
2018-03-16T10:37:11.924Z,28.90
2018-03-16T10:38:11.963Z,29.00
2018-03-16T10:39:11.923Z,28.10
2018-03-16T10:40:11.919Z,26.40
2018-03-16T10:41:11.916Z,26.00
2018-03-16T10:42:11.909Z,26.40
2018-03-16T10:43:11.963Z,28.10
2018-03-16T10:44:11.905Z,23.50
2018-03-16T10:45:11.904Z,26.10
2018-03-16T10:46:11.903Z,27.30
2018-03-16T10:47:11.897Z,26.30
2018-03-16T10:48:11.932Z,25.30
2018-03-16T10:49:11.891Z,26.20
2018-03-16T10:50:12.294Z,25.40
2018-03-16T10:51:11.890Z,25.00
2018-03-16T10:52:11.902Z,26.10
2018-03-16T10:53:11.952Z,24.50
2018-03-16T10:54:11.916Z,21.70
2018-03-16T10:55:11.890Z,24.90
2018-03-16T10:56:11.907Z,23.60
2018-03-16T10:57:11.881Z,21.20
2018-03-16T10:58:11.913Z,24.40
2018-03-16T10:59:11.867Z,25.70
2018-03-16T11:00:11.865Z,25.10
2018-03-16T11:01:11.865Z,25.30
2018-03-16T11:02:11.863Z,25.50
2018-03-16T11:03:11.927Z,25.40
2018-03-16T11:04:11.854Z,25.60
2018-03-16T11:05:11.854Z,24.60
2018-03-16T11:06:11.851Z,21.70
2018-03-16T11:07:11.850Z,20.80
2018-03-16T11:08:11.890Z,24.60
2018-03-16T11:09:12.452Z,24.70
2018-03-16T11:10:12.457Z,24.30
2018-03-16T11:11:11.853Z,25.20
2018-03-16T11:12:11.840Z,25.50
2018-03-16T11:13:11.873Z,24.80
2018-03-16T11:14:11.834Z,24.80
2018-03-16T11:15:11.831Z,23.90
2018-03-16T11:16:11.826Z,24.70
2018-03-16T11:17:11.832Z,23.70
2018-03-16T11:18:11.861Z,22.50
2018-03-16T11:19:11.821Z,23.00
2018-03-16T11:20:11.839Z,23.00
2018-03-16T11:21:11.814Z,19.90
2018-03-16T11:22:11.814Z,17.60
2018-03-16T11:23:11.850Z,23.00
2018-03-16T11:24:11.810Z,22.90
2018-03-16T11:25:11.805Z,22.20
2018-03-16T11:26:11.806Z,22.40
2018-03-16T11:27:11.820Z,20.10
2018-03-16T11:28:11.837Z,21.00
2018-03-16T11:29:11.798Z,21.00
2018-03-16T11:30:11.799Z,21.90
2018-03-16T11:31:11.794Z,22.00
2018-03-16T11:32:11.794Z,20.60
2018-03-16T11:33:11.839Z,21.10
2018-03-16T11:34:11.914Z,20.80
2018-03-16T11:35:11.789Z,20.60
2018-03-16T11:36:11.782Z,21.70
2018-03-16T11:37:11.789Z,21.70
2018-03-16T11:38:11.815Z,21.50
2018-03-16T11:39:11.777Z,21.80
2018-03-16T11:40:11.777Z,20.70
2018-03-16T11:41:11.771Z,20.40
2018-03-16T11:42:11.767Z,20.60
2018-03-16T11:43:11.806Z,19.50
2018-03-16T11:44:11.767Z,20.40
2018-03-16T11:45:11.761Z,20.20
2018-03-16T11:46:11.758Z,20.20
2018-03-16T11:47:12.467Z,20.60
2018-03-16T11:48:11.791Z,19.60
2018-03-16T11:49:11.803Z,22.00
2018-03-16T11:50:11.756Z,22.10
2018-03-16T11:51:11.763Z,19.30
2018-03-16T11:52:11.745Z,21.30
2018-03-16T11:53:11.792Z,22.60
2018-03-16T11:54:11.791Z,21.90
2018-03-16T11:55:11.740Z,21.50
2018-03-16T11:56:11.735Z,20.60
2018-03-16T11:57:11.737Z,21.80
2018-03-16T11:58:11.730Z,22.30
2018-03-16T11:59:11.774Z,23.00
2018-03-16T12:00:11.725Z,22.90
2018-03-16T12:01:11.735Z,23.60
2018-03-16T12:02:11.717Z,23.20
2018-03-16T12:03:11.771Z,22.50
2018-03-16T12:04:11.755Z,22.30
2018-03-16T12:05:11.711Z,23.40
2018-03-16T12:06:11.736Z,24.00
2018-03-16T12:07:11.712Z,22.00
2018-03-16T12:08:11.730Z,24.90
2018-03-16T12:09:11.751Z,26.30
2018-03-16T12:10:11.701Z,25.60
2018-03-16T12:11:11.698Z,27.00
2018-03-16T12:12:12.460Z,22.60
2018-03-16T12:13:11.721Z,28.40
2018-03-16T12:14:11.741Z,27.10
2018-03-16T12:15:11.688Z,29.10
2018-03-16T12:16:11.683Z,27.30
2018-03-16T12:17:11.680Z,28.90
2018-03-16T12:18:11.701Z,27.70
2018-03-16T12:19:11.713Z,28.80
2018-03-16T12:20:11.673Z,21.40
2018-03-16T12:21:11.681Z,27.80
2018-03-16T12:22:11.667Z,26.90
2018-03-16T12:23:11.675Z,27.50
2018-03-16T12:24:11.702Z,27.80
2018-03-16T12:25:11.683Z,27.40
2018-03-16T12:26:11.654Z,27.50
2018-03-16T12:27:11.655Z,25.10
2018-03-16T12:28:11.674Z,26.10
2018-03-16T12:29:11.688Z,26.60
2018-03-16T12:30:11.642Z,26.30
2018-03-16T12:31:11.644Z,26.40
2018-03-16T12:32:11.640Z,25.10
2018-03-16T12:33:11.632Z,25.60
2018-03-16T12:34:11.668Z,26.00
2018-03-16T12:35:11.655Z,25.90
2018-03-16T12:36:11.626Z,26.90
2018-03-16T12:37:11.633Z,26.60
2018-03-16T12:38:11.642Z,25.60
2018-03-16T12:39:11.658Z,25.90
2018-03-16T12:40:11.616Z,20.50
2018-03-16T12:41:11.633Z,24.00
2018-03-16T12:42:11.631Z,23.20
2018-03-16T12:43:11.601Z,22.10
2018-03-16T12:44:11.636Z,23.10
2018-03-16T12:45:11.592Z,23.40
2018-03-16T12:46:11.599Z,25.00
2018-03-16T12:47:11.586Z,23.30
2018-03-16T12:48:11.623Z,24.70
2018-03-16T12:49:11.579Z,24.50
2018-03-16T12:50:11.576Z,25.20
2018-03-16T12:51:11.573Z,23.40
2018-03-16T12:52:11.596Z,25.40